sensor_id;sensor_type;location;lat;lon;timestamp;P1;durP1;ratioP1;P2;durP2;ratioP2
29730;SDS011;16639;51.488;0.152;2023-11-19T00:00:19;58.05;;;9.65;;
29730;SDS011;16639;51.488;0.152;2023-11-19T00:02:46;52.00;;;11.23;;
29730;SDS011;16639;51.488;0.152;2023-11-19T00:05:14;52.67;;;9.30;;
29730;SDS011;16639;51.488;0.152;2023-11-19T00:07:42;52.33;;;10.15;;
29730;SDS011;16639;51.488;0.152;2023-11-19T00:10:10;61.55;;;10.90;;
29730;SDS011;16639;51.488;0.152;2023-11-19T00:12:43;58.13;;;11.40;;
29730;SDS011;16639;51.488;0.152;2023-11-19T00:15:20;54.65;;;10.32;;
29730;SDS011;16639;51.488;0.152;2023-11-19T00:17:48;42.20;;;9.07;;
29730;SDS011;16639;51.488;0.152;2023-11-19T00:20:17;43.55;;;7.93;;
29730;SDS011;16639;51.488;0.152;2023-11-19T00:22:46;49.50;;;10.27;;
29730;SDS011;16639;51.488;0.152;2023-11-19T00:25:17;52.88;;;7.90;;
29730;SDS011;16639;51.488;0.152;2023-11-19T00:27:45;43.88;;;9.15;;
29730;SDS011;16639;51.488;0.152;2023-11-19T00:30:13;55.92;;;10.25;;
29730;SDS011;16639;51.488;0.152;2023-11-19T00:32:41;41.08;;;8.95;;
29730;SDS011;16639;51.488;0.152;2023-11-19T00:35:09;59.50;;;10.93;;
29730;SDS011;16639;51.488;0.152;2023-11-19T00:37:37;51.20;;;8.35;;
29730;SDS011;16639;51.488;0.152;2023-11-19T00:40:05;52.15;;;10.90;;
29730;SDS011;16639;51.488;0.152;2023-11-19T00:42:33;47.90;;;9.88;;
29730;SDS011;16639;51.488;0.152;2023-11-19T00:45:02;47.38;;;7.90;;
29730;SDS011;16639;51.488;0.152;2023-11-19T00:47:30;49.45;;;10.07;;
29730;SDS011;16639;51.488;0.152;2023-11-19T00:49:58;58.90;;;9.00;;
29730;SDS011;16639;51.488;0.152;2023-11-19T00:52:25;49.47;;;8.50;;
29730;SDS011;16639;51.488;0.152;2023-11-19T00:54:53;52.70;;;9.52;;
29730;SDS011;16639;51.488;0.152;2023-11-19T00:57:20;49.35;;;9.52;;
29730;SDS011;16639;51.488;0.152;2023-11-19T00:59:48;39.40;;;7.68;;
29730;SDS011;16639;51.488;0.152;2023-11-19T01:02:15;44.90;;;8.32;;
29730;SDS011;16639;51.488;0.152;2023-11-19T01:04:43;35.53;;;9.23;;
29730;SDS011;16639;51.488;0.152;2023-11-19T01:07:11;51.00;;;10.00;;
29730;SDS011;16639;51.488;0.152;2023-11-19T01:09:43;78.32;;;11.45;;
29730;SDS011;16639;51.488;0.152;2023-11-19T01:12:10;38.75;;;8.65;;
29730;SDS011;16639;51.488;0.152;2023-11-19T01:14:38;47.70;;;9.98;;
29730;SDS011;16639;51.488;0.152;2023-11-19T01:17:05;48.10;;;9.65;;
29730;SDS011;16639;51.488;0.152;2023-11-19T01:19:33;45.97;;;8.52;;
29730;SDS011;16639;51.488;0.152;2023-11-19T01:22:01;65.00;;;9.95;;
29730;SDS011;16639;51.488;0.152;2023-11-19T01:24:28;40.03;;;8.75;;
29730;SDS011;16639;51.488;0.152;2023-11-19T01:26:58;40.78;;;10.95;;
29730;SDS011;16639;51.488;0.152;2023-11-19T01:29:27;40.97;;;8.65;;
29730;SDS011;16639;51.488;0.152;2023-11-19T01:31:55;56.45;;;9.70;;
29730;SDS011;16639;51.488;0.152;2023-11-19T01:34:23;41.90;;;8.65;;
29730;SDS011;16639;51.488;0.152;2023-11-19T01:36:50;49.25;;;10.15;;
29730;SDS011;16639;51.488;0.152;2023-11-19T01:39:21;42.70;;;9.80;;
29730;SDS011;16639;51.488;0.152;2023-11-19T01:41:49;55.78;;;9.02;;
29730;SDS011;16639;51.488;0.152;2023-11-19T01:44:17;51.92;;;11.30;;
29730;SDS011;16639;51.488;0.152;2023-11-19T01:46:45;39.38;;;8.00;;
29730;SDS011;16639;51.488;0.152;2023-11-19T01:49:18;43.60;;;8.13;;
29730;SDS011;16639;51.488;0.152;2023-11-19T01:51:46;45.17;;;8.93;;
29730;SDS011;16639;51.488;0.152;2023-11-19T01:54:14;40.83;;;8.48;;
29730;SDS011;16639;51.488;0.152;2023-11-19T01:56:43;52.08;;;8.68;;
29730;SDS011;16639;51.488;0.152;2023-11-19T01:59:11;39.85;;;7.97;;
29730;SDS011;16639;51.488;0.152;2023-11-19T02:01:41;54.70;;;10.25;;
29730;SDS011;16639;51.488;0.152;2023-11-19T02:04:09;44.03;;;9.65;;
29730;SDS011;16639;51.488;0.152;2023-11-19T02:06:39;31.13;;;8.43;;
29730;SDS011;16639;51.488;0.152;2023-11-19T02:09:08;41.55;;;7.80;;
29730;SDS011;16639;51.488;0.152;2023-11-19T02:11:37;43.38;;;8.32;;
29730;SDS011;16639;51.488;0.152;2023-11-19T02:14:07;41.00;;;10.70;;
29730;SDS011;16639;51.488;0.152;2023-11-19T02:16:35;43.45;;;7.97;;
29730;SDS011;16639;51.488;0.152;2023-11-19T02:19:02;50.92;;;9.75;;
29730;SDS011;16639;51.488;0.152;2023-11-19T02:21:30;52.70;;;8.50;;
29730;SDS011;16639;51.488;0.152;2023-11-19T02:23:58;43.20;;;8.35;;
29730;SDS011;16639;51.488;0.152;2023-11-19T02:26:39;45.03;;;8.40;;
29730;SDS011;16639;51.488;0.152;2023-11-19T02:29:16;47.42;;;8.77;;
29730;SDS011;16639;51.488;0.152;2023-11-19T02:31:46;40.28;;;9.05;;
29730;SDS011;16639;51.488;0.152;2023-11-19T02:34:14;44.75;;;8.48;;
29730;SDS011;16639;51.488;0.152;2023-11-19T02:36:42;37.13;;;7.25;;
29730;SDS011;16639;51.488;0.152;2023-11-19T02:39:10;39.55;;;7.30;;
29730;SDS011;16639;51.488;0.152;2023-11-19T02:41:41;49.03;;;8.15;;
29730;SDS011;16639;51.488;0.152;2023-11-19T02:44:08;32.85;;;7.53;;
29730;SDS011;16639;51.488;0.152;2023-11-19T02:46:36;38.85;;;7.57;;
29730;SDS011;16639;51.488;0.152;2023-11-19T02:49:03;38.05;;;7.68;;
29730;SDS011;16639;51.488;0.152;2023-11-19T02:51:31;59.72;;;8.52;;
29730;SDS011;16639;51.488;0.152;2023-11-19T02:53:59;45.75;;;8.13;;
29730;SDS011;16639;51.488;0.152;2023-11-19T02:56:26;35.05;;;8.90;;
29730;SDS011;16639;51.488;0.152;2023-11-19T02:58:55;51.55;;;8.32;;
29730;SDS011;16639;51.488;0.152;2023-11-19T03:01:24;47.83;;;8.07;;
29730;SDS011;16639;51.488;0.152;2023-11-19T03:03:58;46.90;;;7.75;;
29730;SDS011;16639;51.488;0.152;2023-11-19T03:06:29;39.15;;;6.97;;
29730;SDS011;16639;51.488;0.152;2023-11-19T03:08:57;32.05;;;8.27;;
29730;SDS011;16639;51.488;0.152;2023-11-19T03:11:24;34.85;;;7.18;;
29730;SDS011;16639;51.488;0.152;2023-11-19T03:13:52;41.45;;;8.90;;
29730;SDS011;16639;51.488;0.152;2023-11-19T03:16:19;36.00;;;7.63;;
29730;SDS011;16639;51.488;0.152;2023-11-19T03:18:47;45.90;;;9.05;;
29730;SDS011;16639;51.488;0.152;2023-11-19T03:21:14;37.47;;;7.78;;
29730;SDS011;16639;51.488;0.152;2023-11-19T03:23:43;42.28;;;8.98;;
29730;SDS011;16639;51.488;0.152;2023-11-19T03:26:11;40.67;;;9.27;;
29730;SDS011;16639;51.488;0.152;2023-11-19T03:28:38;34.65;;;7.55;;
29730;SDS011;16639;51.488;0.152;2023-11-19T03:31:06;36.25;;;7.47;;
29730;SDS011;16639;51.488;0.152;2023-11-19T03:33:35;32.40;;;6.65;;
29730;SDS011;16639;51.488;0.152;2023-11-19T03:36:05;44.10;;;8.25;;
29730;SDS011;16639;51.488;0.152;2023-11-19T03:38:34;47.10;;;8.15;;
29730;SDS011;16639;51.488;0.152;2023-11-19T03:41:01;41.28;;;7.13;;
29730;SDS011;16639;51.488;0.152;2023-11-19T03:43:28;45.35;;;8.00;;
29730;SDS011;16639;51.488;0.152;2023-11-19T03:45:58;35.10;;;7.50;;
29730;SDS011;16639;51.488;0.152;2023-11-19T03:48:25;45.78;;;8.82;;
29730;SDS011;16639;51.488;0.152;2023-11-19T03:50:53;40.67;;;8.00;;
29730;SDS011;16639;51.488;0.152;2023-11-19T03:53:20;37.72;;;7.47;;
29730;SDS011;16639;51.488;0.152;2023-11-19T03:55:47;39.20;;;8.38;;
29730;SDS011;16639;51.488;0.152;2023-11-19T03:58:16;39.13;;;7.07;;
29730;SDS011;16639;51.488;0.152;2023-11-19T04:00:44;40.92;;;6.82;;
29730;SDS011;16639;51.488;0.152;2023-11-19T04:03:14;40.75;;;6.65;;
29730;SDS011;16639;51.488;0.152;2023-11-19T04:05:41;35.45;;;6.68;;
29730;SDS011;16639;51.488;0.152;2023-11-19T04:08:09;40.67;;;6.25;;
29730;SDS011;16639;51.488;0.152;2023-11-19T04:10:37;36.95;;;8.10;;
29730;SDS011;16639;51.488;0.152;2023-11-19T04:13:05;46.10;;;9.23;;
29730;SDS011;16639;51.488;0.152;2023-11-19T04:15:32;37.08;;;8.43;;
29730;SDS011;16639;51.488;0.152;2023-11-19T04:18:00;41.83;;;6.70;;
29730;SDS011;16639;51.488;0.152;2023-11-19T04:20:27;51.85;;;9.35;;
29730;SDS011;16639;51.488;0.152;2023-11-19T04:22:56;37.47;;;6.90;;
29730;SDS011;16639;51.488;0.152;2023-11-19T04:25:24;45.25;;;8.02;;
29730;SDS011;16639;51.488;0.152;2023-11-19T04:27:53;38.75;;;7.50;;
29730;SDS011;16639;51.488;0.152;2023-11-19T04:30:22;39.85;;;8.73;;
29730;SDS011;16639;51.488;0.152;2023-11-19T04:32:50;41.95;;;6.60;;
29730;SDS011;16639;51.488;0.152;2023-11-19T04:35:18;41.28;;;8.60;;
29730;SDS011;16639;51.488;0.152;2023-11-19T04:37:45;39.17;;;7.57;;
29730;SDS011;16639;51.488;0.152;2023-11-19T04:40:14;41.30;;;7.20;;
29730;SDS011;16639;51.488;0.152;2023-11-19T04:42:42;31.60;;;6.93;;
29730;SDS011;16639;51.488;0.152;2023-11-19T04:45:09;47.65;;;9.52;;
29730;SDS011;16639;51.488;0.152;2023-11-19T04:47:37;45.33;;;7.18;;
29730;SDS011;16639;51.488;0.152;2023-11-19T04:50:05;37.58;;;7.88;;
29730;SDS011;16639;51.488;0.152;2023-11-19T04:52:33;29.73;;;7.00;;
29730;SDS011;16639;51.488;0.152;2023-11-19T04:55:01;36.55;;;8.43;;
29730;SDS011;16639;51.488;0.152;2023-11-19T04:57:29;36.80;;;6.50;;
29730;SDS011;16639;51.488;0.152;2023-11-19T04:59:56;40.40;;;9.30;;
29730;SDS011;16639;51.488;0.152;2023-11-19T05:02:24;38.60;;;8.68;;
29730;SDS011;16639;51.488;0.152;2023-11-19T05:04:51;42.95;;;7.65;;
29730;SDS011;16639;51.488;0.152;2023-11-19T05:07:20;42.92;;;7.72;;
29730;SDS011;16639;51.488;0.152;2023-11-19T05:09:47;38.35;;;8.27;;
29730;SDS011;16639;51.488;0.152;2023-11-19T05:12:15;39.88;;;7.68;;
29730;SDS011;16639;51.488;0.152;2023-11-19T05:14:43;52.00;;;8.77;;
29730;SDS011;16639;51.488;0.152;2023-11-19T05:17:19;43.45;;;7.95;;
29730;SDS011;16639;51.488;0.152;2023-11-19T05:19:47;34.92;;;7.90;;
29730;SDS011;16639;51.488;0.152;2023-11-19T05:22:15;42.45;;;9.35;;
29730;SDS011;16639;51.488;0.152;2023-11-19T05:24:43;36.75;;;6.55;;
29730;SDS011;16639;51.488;0.152;2023-11-19T05:27:11;34.50;;;7.13;;
29730;SDS011;16639;51.488;0.152;2023-11-19T05:29:40;36.63;;;7.15;;
29730;SDS011;16639;51.488;0.152;2023-11-19T05:32:08;48.75;;;8.50;;
29730;SDS011;16639;51.488;0.152;2023-11-19T05:34:36;33.13;;;7.70;;
29730;SDS011;16639;51.488;0.152;2023-11-19T05:37:18;42.03;;;7.13;;
29730;SDS011;16639;51.488;0.152;2023-11-19T05:39:45;29.98;;;7.22;;
29730;SDS011;16639;51.488;0.152;2023-11-19T05:42:13;37.97;;;8.52;;
29730;SDS011;16639;51.488;0.152;2023-11-19T05:44:40;44.33;;;8.68;;
29730;SDS011;16639;51.488;0.152;2023-11-19T05:47:08;36.80;;;6.93;;
29730;SDS011;16639;51.488;0.152;2023-11-19T05:49:36;42.90;;;9.05;;
29730;SDS011;16639;51.488;0.152;2023-11-19T05:52:04;32.45;;;6.50;;
29730;SDS011;16639;51.488;0.152;2023-11-19T05:54:34;30.92;;;7.40;;
29730;SDS011;16639;51.488;0.152;2023-11-19T05:57:05;44.22;;;7.25;;
29730;SDS011;16639;51.488;0.152;2023-11-19T05:59:36;45.28;;;8.95;;
29730;SDS011;16639;51.488;0.152;2023-11-19T06:02:04;31.75;;;7.68;;
29730;SDS011;16639;51.488;0.152;2023-11-19T06:04:31;59.42;;;8.15;;
29730;SDS011;16639;51.488;0.152;2023-11-19T06:07:00;42.30;;;7.88;;
29730;SDS011;16639;51.488;0.152;2023-11-19T06:09:27;35.40;;;7.88;;
29730;SDS011;16639;51.488;0.152;2023-11-19T06:11:55;42.45;;;8.23;;
29730;SDS011;16639;51.488;0.152;2023-11-19T06:14:24;43.40;;;10.45;;
29730;SDS011;16639;51.488;0.152;2023-11-19T06:16:51;32.13;;;6.95;;
29730;SDS011;16639;51.488;0.152;2023-11-19T06:19:19;37.28;;;7.78;;
29730;SDS011;16639;51.488;0.152;2023-11-19T06:21:47;37.50;;;7.88;;
29730;SDS011;16639;51.488;0.152;2023-11-19T06:24:14;52.33;;;9.90;;
29730;SDS011;16639;51.488;0.152;2023-11-19T06:26:43;48.60;;;8.20;;
29730;SDS011;16639;51.488;0.152;2023-11-19T06:29:11;34.95;;;7.10;;
29730;SDS011;16639;51.488;0.152;2023-11-19T06:31:41;51.72;;;10.23;;
29730;SDS011;16639;51.488;0.152;2023-11-19T06:34:09;37.30;;;6.72;;
29730;SDS011;16639;51.488;0.152;2023-11-19T06:36:37;41.67;;;7.28;;
29730;SDS011;16639;51.488;0.152;2023-11-19T06:39:05;30.17;;;6.82;;
29730;SDS011;16639;51.488;0.152;2023-11-19T06:41:32;45.00;;;8.48;;
29730;SDS011;16639;51.488;0.152;2023-11-19T06:44:00;39.42;;;7.78;;
29730;SDS011;16639;51.488;0.152;2023-11-19T06:46:27;38.97;;;7.30;;
29730;SDS011;16639;51.488;0.152;2023-11-19T06:48:55;40.95;;;6.95;;
29730;SDS011;16639;51.488;0.152;2023-11-19T06:51:23;34.50;;;6.30;;
29730;SDS011;16639;51.488;0.152;2023-11-19T06:53:51;37.00;;;8.50;;
29730;SDS011;16639;51.488;0.152;2023-11-19T06:56:22;37.97;;;7.30;;
29730;SDS011;16639;51.488;0.152;2023-11-19T06:58:51;38.00;;;8.00;;
29730;SDS011;16639;51.488;0.152;2023-11-19T07:01:19;41.40;;;8.48;;
29730;SDS011;16639;51.488;0.152;2023-11-19T07:03:46;35.97;;;5.90;;
29730;SDS011;16639;51.488;0.152;2023-11-19T07:06:15;34.65;;;7.05;;
29730;SDS011;16639;51.488;0.152;2023-11-19T07:08:43;32.53;;;6.90;;
29730;SDS011;16639;51.488;0.152;2023-11-19T07:11:14;51.90;;;7.88;;
29730;SDS011;16639;51.488;0.152;2023-11-19T07:13:43;35.50;;;10.00;;
29730;SDS011;16639;51.488;0.152;2023-11-19T07:16:13;36.20;;;7.05;;
29730;SDS011;16639;51.488;0.152;2023-11-19T07:18:41;27.80;;;6.22;;
29730;SDS011;16639;51.488;0.152;2023-11-19T07:21:11;25.05;;;5.63;;
29730;SDS011;16639;51.488;0.152;2023-11-19T07:23:38;42.28;;;7.10;;
29730;SDS011;16639;51.488;0.152;2023-11-19T07:26:06;30.55;;;6.30;;
29730;SDS011;16639;51.488;0.152;2023-11-19T07:28:36;27.13;;;5.90;;
29730;SDS011;16639;51.488;0.152;2023-11-19T07:31:04;34.38;;;7.43;;
29730;SDS011;16639;51.488;0.152;2023-11-19T07:33:31;40.72;;;6.43;;
29730;SDS011;16639;51.488;0.152;2023-11-19T07:35:59;27.08;;;6.32;;
29730;SDS011;16639;51.488;0.152;2023-11-19T07:38:26;28.27;;;6.13;;
29730;SDS011;16639;51.488;0.152;2023-11-19T07:40:54;41.00;;;7.00;;
29730;SDS011;16639;51.488;0.152;2023-11-19T07:43:23;41.92;;;8.50;;
29730;SDS011;16639;51.488;0.152;2023-11-19T07:45:50;22.27;;;6.07;;
29730;SDS011;16639;51.488;0.152;2023-11-19T07:48:18;42.38;;;7.45;;
29730;SDS011;16639;51.488;0.152;2023-11-19T07:50:50;28.40;;;6.05;;
29730;SDS011;16639;51.488;0.152;2023-11-19T07:53:18;22.38;;;6.07;;
29730;SDS011;16639;51.488;0.152;2023-11-19T07:55:46;39.55;;;6.88;;
29730;SDS011;16639;51.488;0.152;2023-11-19T07:58:13;27.73;;;4.88;;
29730;SDS011;16639;51.488;0.152;2023-11-19T08:00:40;32.05;;;5.55;;
29730;SDS011;16639;51.488;0.152;2023-11-19T08:03:08;30.60;;;5.88;;
29730;SDS011;16639;51.488;0.152;2023-11-19T08:05:36;23.02;;;6.43;;
29730;SDS011;16639;51.488;0.152;2023-11-19T08:08:03;27.02;;;5.82;;
29730;SDS011;16639;51.488;0.152;2023-11-19T08:10:31;32.95;;;4.80;;
29730;SDS011;16639;51.488;0.152;2023-11-19T08:13:02;29.73;;;6.38;;
29730;SDS011;16639;51.488;0.152;2023-11-19T08:15:29;23.27;;;5.35;;
29730;SDS011;16639;51.488;0.152;2023-11-19T08:17:58;26.80;;;6.10;;
29730;SDS011;16639;51.488;0.152;2023-11-19T08:20:26;31.58;;;5.65;;
29730;SDS011;16639;51.488;0.152;2023-11-19T08:22:53;28.23;;;6.40;;
29730;SDS011;16639;51.488;0.152;2023-11-19T08:25:21;32.60;;;5.63;;
29730;SDS011;16639;51.488;0.152;2023-11-19T08:27:48;23.35;;;5.60;;
29730;SDS011;16639;51.488;0.152;2023-11-19T08:30:15;27.20;;;6.35;;
29730;SDS011;16639;51.488;0.152;2023-11-19T08:32:43;26.95;;;6.03;;
29730;SDS011;16639;51.488;0.152;2023-11-19T08:35:12;18.15;;;4.95;;
29730;SDS011;16639;51.488;0.152;2023-11-19T08:37:40;22.23;;;5.30;;
29730;SDS011;16639;51.488;0.152;2023-11-19T08:40:07;32.13;;;6.45;;
29730;SDS011;16639;51.488;0.152;2023-11-19T08:42:36;34.38;;;6.57;;
29730;SDS011;16639;51.488;0.152;2023-11-19T08:45:06;17.25;;;4.97;;
29730;SDS011;16639;51.488;0.152;2023-11-19T08:47:37;28.27;;;5.47;;
29730;SDS011;16639;51.488;0.152;2023-11-19T08:50:05;32.05;;;5.25;;
29730;SDS011;16639;51.488;0.152;2023-11-19T08:52:33;24.48;;;4.53;;
29730;SDS011;16639;51.488;0.152;2023-11-19T08:55:01;23.65;;;5.28;;
29730;SDS011;16639;51.488;0.152;2023-11-19T08:57:29;19.48;;;6.22;;
29730;SDS011;16639;51.488;0.152;2023-11-19T08:59:56;25.08;;;5.53;;
29730;SDS011;16639;51.488;0.152;2023-11-19T09:02:24;25.77;;;4.65;;
29730;SDS011;16639;51.488;0.152;2023-11-19T09:04:51;31.75;;;5.38;;
29730;SDS011;16639;51.488;0.152;2023-11-19T09:07:20;24.92;;;5.40;;
29730;SDS011;16639;51.488;0.152;2023-11-19T09:09:48;28.30;;;5.43;;
29730;SDS011;16639;51.488;0.152;2023-11-19T09:12:15;26.92;;;5.38;;
29730;SDS011;16639;51.488;0.152;2023-11-19T09:14:43;23.60;;;5.15;;
29730;SDS011;16639;51.488;0.152;2023-11-19T09:17:12;32.60;;;6.15;;
29730;SDS011;16639;51.488;0.152;2023-11-19T09:19:39;33.40;;;5.60;;
29730;SDS011;16639;51.488;0.152;2023-11-19T09:22:07;23.58;;;6.13;;
29730;SDS011;16639;51.488;0.152;2023-11-19T09:24:35;27.65;;;5.13;;
29730;SDS011;16639;51.488;0.152;2023-11-19T09:27:02;25.92;;;7.18;;
29730;SDS011;16639;51.488;0.152;2023-11-19T09:29:33;35.72;;;6.13;;
29730;SDS011;16639;51.488;0.152;2023-11-19T09:32:00;34.75;;;5.63;;
29730;SDS011;16639;51.488;0.152;2023-11-19T09:34:31;36.22;;;7.32;;
29730;SDS011;16639;51.488;0.152;2023-11-19T09:36:58;27.52;;;5.93;;
29730;SDS011;16639;51.488;0.152;2023-11-19T09:39:26;25.90;;;5.93;;
29730;SDS011;16639;51.488;0.152;2023-11-19T09:41:54;28.10;;;5.90;;
29730;SDS011;16639;51.488;0.152;2023-11-19T09:44:22;30.80;;;5.97;;
29730;SDS011;16639;51.488;0.152;2023-11-19T09:46:51;32.58;;;5.95;;
29730;SDS011;16639;51.488;0.152;2023-11-19T09:49:21;35.03;;;5.60;;
29730;SDS011;16639;51.488;0.152;2023-11-19T09:51:54;22.83;;;6.32;;
29730;SDS011;16639;51.488;0.152;2023-11-19T09:54:21;36.88;;;8.55;;
29730;SDS011;16639;51.488;0.152;2023-11-19T09:56:49;29.40;;;7.28;;
29730;SDS011;16639;51.488;0.152;2023-11-19T09:59:17;30.20;;;5.93;;
29730;SDS011;16639;51.488;0.152;2023-11-19T10:01:45;30.20;;;5.85;;
29730;SDS011;16639;51.488;0.152;2023-11-19T10:04:15;38.03;;;7.93;;
29730;SDS011;16639;51.488;0.152;2023-11-19T10:06:44;27.90;;;5.78;;
29730;SDS011;16639;51.488;0.152;2023-11-19T10:09:12;43.00;;;7.97;;
29730;SDS011;16639;51.488;0.152;2023-11-19T10:11:41;45.60;;;8.70;;
29730;SDS011;16639;51.488;0.152;2023-11-19T10:14:09;31.58;;;6.45;;
29730;SDS011;16639;51.488;0.152;2023-11-19T10:16:37;35.03;;;6.53;;
29730;SDS011;16639;51.488;0.152;2023-11-19T10:19:05;29.83;;;5.57;;
29730;SDS011;16639;51.488;0.152;2023-11-19T10:21:32;22.70;;;5.30;;
29730;SDS011;16639;51.488;0.152;2023-11-19T10:24:03;36.63;;;5.47;;
29730;SDS011;16639;51.488;0.152;2023-11-19T10:26:33;28.67;;;5.68;;
29730;SDS011;16639;51.488;0.152;2023-11-19T10:29:04;35.65;;;6.90;;
29730;SDS011;16639;51.488;0.152;2023-11-19T10:31:31;37.15;;;7.25;;
29730;SDS011;16639;51.488;0.152;2023-11-19T10:33:59;34.25;;;6.07;;
29730;SDS011;16639;51.488;0.152;2023-11-19T10:36:38;26.45;;;5.35;;
29730;SDS011;16639;51.488;0.152;2023-11-19T10:39:08;25.20;;;5.97;;
29730;SDS011;16639;51.488;0.152;2023-11-19T10:41:36;19.98;;;4.38;;
29730;SDS011;16639;51.488;0.152;2023-11-19T10:44:03;34.80;;;5.63;;
29730;SDS011;16639;51.488;0.152;2023-11-19T10:46:39;27.45;;;5.68;;
29730;SDS011;16639;51.488;0.152;2023-11-19T10:49:08;27.27;;;5.07;;
29730;SDS011;16639;51.488;0.152;2023-11-19T10:51:36;27.83;;;5.82;;
29730;SDS011;16639;51.488;0.152;2023-11-19T10:54:06;37.83;;;9.80;;
29730;SDS011;16639;51.488;0.152;2023-11-19T10:56:34;24.65;;;6.80;;
29730;SDS011;16639;51.488;0.152;2023-11-19T10:59:02;28.92;;;5.82;;
29730;SDS011;16639;51.488;0.152;2023-11-19T11:01:48;24.30;;;5.47;;
29730;SDS011;16639;51.488;0.152;2023-11-19T11:04:24;15.13;;;4.38;;
29730;SDS011;16639;51.488;0.152;2023-11-19T11:06:56;19.63;;;4.97;;
29730;SDS011;16639;51.488;0.152;2023-11-19T11:09:26;16.15;;;4.13;;
29730;SDS011;16639;51.488;0.152;2023-11-19T11:11:55;28.38;;;5.38;;
29730;SDS011;16639;51.488;0.152;2023-11-19T11:14:24;16.63;;;4.20;;
29730;SDS011;16639;51.488;0.152;2023-11-19T11:16:53;16.70;;;4.07;;
29730;SDS011;16639;51.488;0.152;2023-11-19T11:19:23;14.82;;;3.45;;
29730;SDS011;16639;51.488;0.152;2023-11-19T11:21:53;18.48;;;3.72;;
29730;SDS011;16639;51.488;0.152;2023-11-19T11:30:07;20.55;;;4.07;;
29730;SDS011;16639;51.488;0.152;2023-11-19T11:32:44;22.48;;;3.83;;
29730;SDS011;16639;51.488;0.152;2023-11-19T11:38:06;19.20;;;4.28;;
29730;SDS011;16639;51.488;0.152;2023-11-19T11:40:35;21.38;;;4.85;;
29730;SDS011;16639;51.488;0.152;2023-11-19T11:43:27;33.65;;;4.95;;
29730;SDS011;16639;51.488;0.152;2023-11-19T11:49:05;25.33;;;5.88;;
29730;SDS011;16639;51.488;0.152;2023-11-19T11:52:18;25.00;;;4.78;;
29730;SDS011;16639;51.488;0.152;2023-11-19T11:54:28;18.08;;;4.50;;
29730;SDS011;16639;51.488;0.152;2023-11-19T11:57:11;15.68;;;4.90;;
29730;SDS011;16639;51.488;0.152;2023-11-19T12:02:09;17.90;;;4.40;;
29730;SDS011;16639;51.488;0.152;2023-11-19T12:04:46;19.75;;;3.55;;
29730;SDS011;16639;51.488;0.152;2023-11-19T12:07:20;23.27;;;4.18;;
29730;SDS011;16639;51.488;0.152;2023-11-19T12:09:53;18.63;;;4.32;;
29730;SDS011;16639;51.488;0.152;2023-11-19T12:12:34;16.17;;;4.65;;
29730;SDS011;16639;51.488;0.152;2023-11-19T12:15:08;22.00;;;4.95;;
29730;SDS011;16639;51.488;0.152;2023-11-19T12:17:46;27.38;;;5.30;;
29730;SDS011;16639;51.488;0.152;2023-11-19T12:20:19;22.58;;;4.72;;
29730;SDS011;16639;51.488;0.152;2023-11-19T12:22:53;18.70;;;3.85;;
29730;SDS011;16639;51.488;0.152;2023-11-19T12:25:21;18.40;;;4.43;;
29730;SDS011;16639;51.488;0.152;2023-11-19T12:27:50;22.15;;;3.50;;
29730;SDS011;16639;51.488;0.152;2023-11-19T12:32:53;16.42;;;4.55;;
29730;SDS011;16639;51.488;0.152;2023-11-19T12:35:22;19.48;;;4.30;;
29730;SDS011;16639;51.488;0.152;2023-11-19T12:37:51;19.58;;;4.53;;
29730;SDS011;16639;51.488;0.152;2023-11-19T12:40:20;24.90;;;4.00;;
29730;SDS011;16639;51.488;0.152;2023-11-19T12:42:51;18.48;;;4.47;;
29730;SDS011;16639;51.488;0.152;2023-11-19T12:45:20;15.65;;;4.70;;
29730;SDS011;16639;51.488;0.152;2023-11-19T12:47:50;18.85;;;3.83;;
29730;SDS011;16639;51.488;0.152;2023-11-19T12:50:52;21.13;;;3.63;;
29730;SDS011;16639;51.488;0.152;2023-11-19T12:53:20;26.90;;;3.97;;
29730;SDS011;16639;51.488;0.152;2023-11-19T12:55:50;35.35;;;5.20;;
29730;SDS011;16639;51.488;0.152;2023-11-19T12:58:34;11.00;;;3.35;;
29730;SDS011;16639;51.488;0.152;2023-11-19T13:01:06;23.48;;;3.95;;
29730;SDS011;16639;51.488;0.152;2023-11-19T13:03:37;17.27;;;3.47;;
29730;SDS011;16639;51.488;0.152;2023-11-19T13:06:06;11.77;;;3.42;;
29730;SDS011;16639;51.488;0.152;2023-11-19T13:08:35;14.23;;;2.65;;
29730;SDS011;16639;51.488;0.152;2023-11-19T13:11:05;21.13;;;4.28;;
29730;SDS011;16639;51.488;0.152;2023-11-19T13:13:54;29.55;;;4.35;;
29730;SDS011;16639;51.488;0.152;2023-11-19T13:16:23;25.17;;;3.85;;
29730;SDS011;16639;51.488;0.152;2023-11-19T13:18:51;21.05;;;4.10;;
29730;SDS011;16639;51.488;0.152;2023-11-19T13:21:18;16.15;;;3.28;;
29730;SDS011;16639;51.488;0.152;2023-11-19T13:23:46;18.67;;;4.43;;
29730;SDS011;16639;51.488;0.152;2023-11-19T13:26:13;24.67;;;4.35;;
29730;SDS011;16639;51.488;0.152;2023-11-19T13:28:41;18.58;;;3.42;;
29730;SDS011;16639;51.488;0.152;2023-11-19T13:31:08;16.83;;;3.40;;
29730;SDS011;16639;51.488;0.152;2023-11-19T13:33:37;19.23;;;3.75;;
29730;SDS011;16639;51.488;0.152;2023-11-19T13:36:05;12.75;;;4.50;;
29730;SDS011;16639;51.488;0.152;2023-11-19T13:38:36;26.63;;;4.75;;
29730;SDS011;16639;51.488;0.152;2023-11-19T13:41:04;25.98;;;4.30;;
29730;SDS011;16639;51.488;0.152;2023-11-19T13:43:32;20.83;;;3.58;;
29730;SDS011;16639;51.488;0.152;2023-11-19T13:46:00;14.15;;;3.15;;
29730;SDS011;16639;51.488;0.152;2023-11-19T13:48:27;14.48;;;2.95;;
29730;SDS011;16639;51.488;0.152;2023-11-19T13:50:55;11.80;;;3.20;;
29730;SDS011;16639;51.488;0.152;2023-11-19T13:53:23;19.77;;;3.75;;
29730;SDS011;16639;51.488;0.152;2023-11-19T13:55:50;18.55;;;3.20;;
29730;SDS011;16639;51.488;0.152;2023-11-19T13:58:18;18.75;;;3.97;;
29730;SDS011;16639;51.488;0.152;2023-11-19T14:00:45;24.83;;;4.45;;
29730;SDS011;16639;51.488;0.152;2023-11-19T14:03:13;16.77;;;4.82;;
29730;SDS011;16639;51.488;0.152;2023-11-19T14:05:41;12.57;;;3.60;;
29730;SDS011;16639;51.488;0.152;2023-11-19T14:08:09;12.13;;;2.35;;
29730;SDS011;16639;51.488;0.152;2023-11-19T14:10:51;20.00;;;4.97;;
29730;SDS011;16639;51.488;0.152;2023-11-19T14:13:22;16.73;;;3.45;;
29730;SDS011;16639;51.488;0.152;2023-11-19T14:15:50;16.23;;;3.63;;
29730;SDS011;16639;51.488;0.152;2023-11-19T14:18:18;16.73;;;3.30;;
29730;SDS011;16639;51.488;0.152;2023-11-19T14:20:45;8.27;;;3.33;;
29730;SDS011;16639;51.488;0.152;2023-11-19T14:23:13;18.55;;;3.17;;
29730;SDS011;16639;51.488;0.152;2023-11-19T14:25:40;9.52;;;3.00;;
29730;SDS011;16639;51.488;0.152;2023-11-19T14:28:07;17.10;;;3.78;;
29730;SDS011;16639;51.488;0.152;2023-11-19T14:30:35;12.57;;;3.00;;
29730;SDS011;16639;51.488;0.152;2023-11-19T14:33:02;14.48;;;3.08;;
29730;SDS011;16639;51.488;0.152;2023-11-19T14:35:30;11.55;;;3.00;;
29730;SDS011;16639;51.488;0.152;2023-11-19T14:37:59;10.90;;;2.85;;
29730;SDS011;16639;51.488;0.152;2023-11-19T14:40:27;17.98;;;3.15;;
29730;SDS011;16639;51.488;0.152;2023-11-19T14:42:57;7.47;;;2.22;;
29730;SDS011;16639;51.488;0.152;2023-11-19T14:45:24;19.63;;;3.60;;
29730;SDS011;16639;51.488;0.152;2023-11-19T14:47:55;13.25;;;3.60;;
29730;SDS011;16639;51.488;0.152;2023-11-19T14:50:22;13.40;;;2.55;;
29730;SDS011;16639;51.488;0.152;2023-11-19T14:52:50;9.82;;;2.75;;
29730;SDS011;16639;51.488;0.152;2023-11-19T14:55:18;15.80;;;2.85;;
29730;SDS011;16639;51.488;0.152;2023-11-19T14:57:45;10.18;;;2.17;;
29730;SDS011;16639;51.488;0.152;2023-11-19T15:00:23;13.95;;;2.67;;